Time;durP1;ratioP1;P1;durP2;ratioP2;P2;SDS_P1;SDS_P2;PMS_P1;PMS_P2;Temp;Humidity;BMP_temperature;BMP_pressure;BME280_temperature;BME280_humidity;BME280_pressure;Samples;Min_cycle;Max_cycle;Signal;HPM_P1;HPM_P2
2023/02/16 00:01:33;;;;;;;13.77;6.72;;;;;;;;;;4991714;28;20038;-83
2023/02/16 00:04:01;;;;;;;13.00;7.55;;;;;;;;;;4994822;28;20034;-83
2023/02/16 00:06:29;;;;;;;10.88;7.05;;;;;;;;;;4987029;28;20130;-83
2023/02/16 00:08:56;;;;;;;13.40;6.38;;;;;;;;;;4986158;28;20065;-83
2023/02/16 00:14:10;;;;;;;14.98;7.43;;;;;;;;;;4982662;28;20672;-82
2023/02/16 00:16:36;;;;;;;14.13;6.93;;;;;;;;;;4987983;28;20034;-83
2023/02/16 00:19:13;;;;;;;14.50;6.82;;;;;;;;;;4990233;28;20120;-83
2023/02/16 00:21:39;;;;;;;13.82;7.13;;;;;;;;;;4988647;28;20057;-82
2023/02/16 00:24:05;;;;;;;12.15;6.60;;;;;;;;;;4986205;28;20599;-83
2023/02/16 00:26:32;;;;;;;11.05;7.68;;;;;;;;;;4987337;28;20433;-82
2023/02/16 00:28:58;;;;;;;14.93;7.32;;;;;;;;;;4986947;28;20034;-83
2023/02/16 00:31:26;;;;;;;13.05;7.07;;;;;;;;;;4989195;28;20030;-83
2023/02/16 00:33:54;;;;;;;12.65;7.03;;;;;;;;;;4985545;28;20488;-82
2023/02/16 00:36:21;;;;;;;16.13;7.40;;;;;;;;;;4984236;28;20050;-82
2023/02/16 00:38:47;;;;;;;15.57;7.57;;;;;;;;;;4988028;28;20022;-83
2023/02/16 00:44:15;;;;;;;16.98;7.85;;;;;;;;;;4984754;28;20555;-83
2023/02/16 00:46:42;;;;;;;14.27;7.20;;;;;;;;;;4986433;28;20022;-84
2023/02/16 00:49:12;;;;;;;12.52;6.47;;;;;;;;;;4984385;28;20034;-83
2023/02/16 00:51:38;;;;;;;13.30;7.43;;;;;;;;;;4987612;28;20060;-83
2023/02/16 00:54:07;;;;;;;13.55;7.53;;;;;;;;;;4987528;28;20038;-83
2023/02/16 00:56:33;;;;;;;13.32;7.18;;;;;;;;;;4987982;28;20165;-83
2023/02/16 00:59:00;;;;;;;13.50;6.90;;;;;;;;;;4984858;28;20194;-82
2023/02/16 01:01:27;;;;;;;12.23;6.90;;;;;;;;;;4985650;28;20023;-83
2023/02/16 01:03:56;;;;;;;16.60;6.60;;;;;;;;;;4985472;28;20049;-83
2023/02/16 01:11:56;;;;;;;13.82;6.88;;;;;;;;;;4986101;28;20520;-83
2023/02/16 01:14:22;;;;;;;17.42;7.32;;;;;;;;;;4986829;28;20061;-85
2023/02/16 01:16:48;;;;;;;13.48;6.70;;;;;;;;;;4986774;28;20026;-84
2023/02/16 01:19:14;;;;;;;14.73;7.57;;;;;;;;;;4986080;28;20033;-83
2023/02/16 01:21:40;;;;;;;13.27;6.70;;;;;;;;;;4985932;28;20026;-84
2023/02/16 01:24:06;;;;;;;13.30;6.82;;;;;;;;;;4987006;28;20564;-83
2023/02/16 01:26:36;;;;;;;13.98;6.88;;;;;;;;;;4986800;28;20133;-84
2023/02/16 01:29:02;;;;;;;13.70;6.50;;;;;;;;;;4984336;28;20032;-83
2023/02/16 01:31:28;;;;;;;15.40;7.13;;;;;;;;;;4987823;28;20111;-84
2023/02/16 01:33:54;;;;;;;10.65;5.63;;;;;;;;;;4985355;28;20292;-84
2023/02/16 01:36:23;;;;;;;12.85;6.32;;;;;;;;;;4988342;28;20057;-85
2023/02/16 01:38:49;;;;;;;11.43;6.30;;;;;;;;;;4986088;28;20034;-84
2023/02/16 01:41:22;;;;;;;12.35;6.68;;;;;;;;;;4985436;28;20034;-84
2023/02/16 01:43:51;;;;;;;14.35;6.80;;;;;;;;;;4978635;28;20491;-84
2023/02/16 01:46:19;;;;;;;12.02;6.53;;;;;;;;;;4987312;28;20104;-85
2023/02/16 01:48:45;;;;;;;13.55;7.30;;;;;;;;;;4983494;28;20069;-84
2023/02/16 01:51:11;;;;;;;12.38;6.47;;;;;;;;;;4985436;28;20038;-84
2023/02/16 04:03:47;;;;;;;10.48;5.10;;;;;;;;;;4965584;28;20524;-85
2023/02/16 04:06:13;;;;;;;10.98;5.47;;;;;;;;;;4988152;28;20034;-84
2023/02/16 04:08:39;;;;;;;11.00;4.88;;;;;;;;;;4988658;28;20054;-84
2023/02/16 04:13:50;;;;;;;10.18;5.00;;;;;;;;;;4986664;28;20076;-83
2023/02/16 04:16:16;;;;;;;8.35;4.93;;;;;;;;;;4988296;28;20558;-83
2023/02/16 04:18:42;;;;;;;10.18;5.22;;;;;;;;;;4986129;28;20023;-83
2023/02/16 04:21:08;;;;;;;11.13;5.28;;;;;;;;;;4986386;28;20086;-83
2023/02/16 04:23:34;;;;;;;10.45;5.35;;;;;;;;;;4986488;28;20504;-84
2023/02/16 04:26:00;;;;;;;10.35;4.72;;;;;;;;;;4989501;28;20042;-84
2023/02/16 04:28:26;;;;;;;10.38;5.25;;;;;;;;;;4988727;28;20023;-84
2023/02/16 04:30:52;;;;;;;8.82;4.40;;;;;;;;;;4987888;28;20034;-83
2023/02/16 04:33:18;;;;;;;7.88;4.72;;;;;;;;;;4987802;28;20089;-84
2023/02/16 04:35:44;;;;;;;10.48;5.25;;;;;;;;;;4986601;28;20022;-81
2023/02/16 04:38:10;;;;;;;7.47;4.45;;;;;;;;;;4987200;28;20157;-83
2023/02/16 04:40:36;;;;;;;10.35;4.97;;;;;;;;;;4986926;28;20121;-76
2023/02/16 04:44:05;;;;;;;9.13;4.75;;;;;;;;;;4984464;28;20026;-76
2023/02/16 04:46:06;;;;;;;10.48;4.55;;;;;;;;;;4975498;28;20489;-76
2023/02/16 04:48:32;;;;;;;9.38;5.10;;;;;;;;;;4987083;28;20037;-76
2023/02/16 04:50:58;;;;;;;9.65;5.03;;;;;;;;;;4988140;28;20108;-76
2023/02/16 04:53:24;;;;;;;8.88;4.28;;;;;;;;;;4987011;28;20026;-76
2023/02/16 04:55:50;;;;;;;9.05;4.95;;;;;;;;;;4988321;28;20022;-76
2023/02/16 04:58:16;;;;;;;8.10;4.25;;;;;;;;;;4986373;28;20117;-76
2023/02/16 05:00:42;;;;;;;7.80;4.50;;;;;;;;;;4987047;28;20022;-76
2023/02/16 05:03:09;;;;;;;10.43;4.90;;;;;;;;;;4985734;28;20030;-77
2023/02/16 05:05:35;;;;;;;12.05;4.78;;;;;;;;;;4988049;28;20046;-76
2023/02/16 05:08:02;;;;;;;7.50;4.25;;;;;;;;;;4984439;28;20076;-76
2023/02/16 05:10:28;;;;;;;6.68;4.28;;;;;;;;;;4985596;28;20030;-77
2023/02/16 05:15:39;;;;;;;7.82;3.75;;;;;;;;;;4982247;28;20172;-75
2023/02/16 05:18:05;;;;;;;8.90;4.15;;;;;;;;;;4990885;28;20038;-76
2023/02/16 05:23:15;;;;;;;10.05;4.70;;;;;;;;;;4987888;28;20400;-81
2023/02/16 05:25:41;;;;;;;9.13;3.92;;;;;;;;;;4981941;28;20038;-80
2023/02/16 05:28:07;;;;;;;7.43;3.85;;;;;;;;;;4981676;28;20532;-80
2023/02/16 05:30:33;;;;;;;7.68;4.25;;;;;;;;;;4986580;28;20617;-81
2023/02/16 05:32:59;;;;;;;8.57;4.00;;;;;;;;;;4987063;28;20037;-81
2023/02/16 05:35:25;;;;;;;8.27;4.22;;;;;;;;;;4970109;28;20019;-83
2023/02/16 05:37:51;;;;;;;7.88;4.38;;;;;;;;;;4980226;28;20030;-82
2023/02/16 05:40:17;;;;;;;10.40;4.25;;;;;;;;;;4995991;28;20415;-82
2023/02/16 05:42:43;;;;;;;6.82;3.92;;;;;;;;;;4989477;28;20026;-85
2023/02/16 05:45:09;;;;;;;7.00;3.50;;;;;;;;;;4989381;28;20030;-82
2023/02/16 05:47:35;;;;;;;7.82;3.72;;;;;;;;;;4987298;28;20034;-82
2023/02/16 05:50:01;;;;;;;5.88;3.90;;;;;;;;;;4991160;28;20038;-82
2023/02/16 05:52:27;;;;;;;5.95;3.70;;;;;;;;;;4986643;28;20042;-83
2023/02/16 05:54:53;;;;;;;6.60;3.55;;;;;;;;;;4986008;28;20041;-83
2023/02/16 05:57:19;;;;;;;7.90;4.18;;;;;;;;;;4983015;28;20093;-79
2023/02/16 05:59:45;;;;;;;7.53;4.32;;;;;;;;;;4984588;28;20034;-79
2023/02/16 06:02:14;;;;;;;7.45;3.92;;;;;;;;;;4986216;28;20037;-79
2023/02/16 06:04:40;;;;;;;9.60;4.05;;;;;;;;;;4982259;28;20070;-79
2023/02/16 06:07:06;;;;;;;7.35;4.03;;;;;;;;;;4987446;28;20030;-80
2023/02/16 06:09:32;;;;;;;6.47;3.85;;;;;;;;;;4986795;28;20025;-79
2023/02/16 06:11:58;;;;;;;10.52;3.33;;;;;;;;;;4982321;28;20034;-79
2023/02/16 06:14:23;;;;;;;7.72;3.95;;;;;;;;;;4984944;28;20030;-79
2023/02/16 06:16:53;;;;;;;8.20;3.92;;;;;;;;;;4987523;28;20026;-79
2023/02/16 06:19:19;;;;;;;6.10;3.67;;;;;;;;;;4985764;28;20030;-80
2023/02/16 06:21:45;;;;;;;5.35;3.47;;;;;;;;;;4987293;28;20256;-77
2023/02/16 06:24:12;;;;;;;7.93;3.50;;;;;;;;;;4974539;28;20032;-78
2023/02/16 06:26:38;;;;;;;7.05;3.65;;;;;;;;;;4987146;28;20096;-77
2023/02/16 06:29:05;;;;;;;7.72;3.25;;;;;;;;;;4988209;28;20030;-77
2023/02/16 06:31:33;;;;;;;6.22;3.03;;;;;;;;;;4987547;28;20031;-78
2023/02/16 06:34:02;;;;;;;6.18;3.53;;;;;;;;;;4968396;28;20034;-77
2023/02/16 06:36:28;;;;;;;5.72;3.33;;;;;;;;;;4986179;28;20039;-79
2023/02/16 06:38:54;;;;;;;6.63;3.38;;;;;;;;;;4987612;28;20038;-78
2023/02/16 06:41:36;;;;;;;7.60;2.55;;;;;;;;;;4988095;28;20027;-78
2023/02/16 06:44:06;;;;;;;4.10;2.78;;;;;;;;;;4987234;28;20389;-78
2023/02/16 06:46:35;;;;;;;6.15;3.35;;;;;;;;;;4983816;28;20113;-77
2023/02/16 06:49:01;;;;;;;4.50;3.00;;;;;;;;;;4984691;28;20037;-79
2023/02/16 06:51:27;;;;;;;5.88;3.15;;;;;;;;;;4987179;28;20031;-77
2023/02/16 06:53:53;;;;;;;4.47;2.90;;;;;;;;;;4982129;28;20524;-80
2023/02/16 06:56:19;;;;;;;6.32;3.33;;;;;;;;;;4983692;28;20057;-81
2023/02/16 06:58:45;;;;;;;5.75;3.13;;;;;;;;;;4987666;28;20150;-81
2023/02/16 07:01:11;;;;;;;5.47;2.95;;;;;;;;;;4987411;28;20061;-82
2023/02/16 07:03:38;;;;;;;5.65;3.00;;;;;;;;;;4981912;28;20909;-82
2023/02/16 07:06:04;;;;;;;4.30;2.70;;;;;;;;;;4987702;28;20030;-82
2023/02/16 07:08:30;;;;;;;4.53;2.95;;;;;;;;;;4982014;28;20904;-82
2023/02/16 07:10:56;;;;;;;3.90;2.67;;;;;;;;;;4987345;28;20049;-79
2023/02/16 07:13:22;;;;;;;4.53;2.53;;;;;;;;;;4979061;28;20038;-83
2023/02/16 07:15:48;;;;;;;3.80;2.90;;;;;;;;;;4985623;28;20078;-83
2023/02/16 07:18:14;;;;;;;6.65;2.97;;;;;;;;;;4987516;28;20521;-84
2023/02/16 07:20:40;;;;;;;3.90;2.83;;;;;;;;;;4987100;28;20034;-84
2023/02/16 07:23:06;;;;;;;6.00;3.10;;;;;;;;;;4987860;28;20544;-85
2023/02/16 07:25:32;;;;;;;5.38;3.03;;;;;;;;;;4989321;28;20727;-84
2023/02/16 07:27:58;;;;;;;4.70;3.00;;;;;;;;;;4986239;28;20034;-85
2023/02/16 07:30:24;;;;;;;4.57;2.80;;;;;;;;;;4983952;28;20184;-84
2023/02/16 07:32:53;;;;;;;4.68;2.72;;;;;;;;;;4984179;28;20069;-84
2023/02/16 07:35:21;;;;;;;4.80;2.88;;;;;;;;;;4985495;28;20018;-84
2023/02/16 07:37:46;;;;;;;4.70;2.88;;;;;;;;;;4984436;28;20041;-84
2023/02/16 07:40:13;;;;;;;4.63;2.78;;;;;;;;;;4986728;28;20627;-85
2023/02/16 07:42:39;;;;;;;3.08;2.33;;;;;;;;;;4986602;28;20105;-84
2023/02/16 07:45:05;;;;;;;5.45;3.05;;;;;;;;;;4986844;28;20030;-85
2023/02/16 07:47:31;;;;;;;4.47;2.50;;;;;;;;;;4983368;28;20034;-85
2023/02/16 07:49:57;;;;;;;3.90;2.42;;;;;;;;;;4980046;28;20089;-85
2023/02/16 07:52:29;;;;;;;3.88;2.40;;;;;;;;;;4986022;28;20023;-79
2023/02/16 07:54:55;;;;;;;4.05;2.35;;;;;;;;;;4986689;28;20026;-78
2023/02/16 07:57:21;;;;;;;3.90;2.67;;;;;;;;;;4989532;28;20030;-79
2023/02/16 07:59:56;;;;;;;5.88;2.65;;;;;;;;;;4989268;28;20029;-80
2023/02/16 08:02:22;;;;;;;5.40;2.72;;;;;;;;;;4989248;28;20018;-77
2023/02/16 08:04:51;;;;;;;3.90;2.40;;;;;;;;;;4988824;28;20073;-80
2023/02/16 08:07:18;;;;;;;5.50;2.55;;;;;;;;;;4986599;28;20489;-80
2023/02/16 08:09:44;;;;;;;4.75;2.75;;;;;;;;;;4988567;28;20441;-79
2023/02/16 08:12:11;;;;;;;5.95;2.70;;;;;;;;;;4985976;28;20029;-79
2023/02/16 08:14:37;;;;;;;3.55;2.42;;;;;;;;;;4989238;28;20397;-79
2023/02/16 08:17:04;;;;;;;3.95;2.50;;;;;;;;;;4989287;28;20030;-79
2023/02/16 08:19:30;;;;;;;4.22;2.50;;;;;;;;;;4977865;28;20026;-79
2023/02/16 08:21:57;;;;;;;5.82;2.80;;;;;;;;;;4989374;28;20324;-79
2023/02/16 08:24:23;;;;;;;4.38;2.47;;;;;;;;;;4989335;28;20030;-79
2023/02/16 08:26:51;;;;;;;4.78;2.70;;;;;;;;;;4988363;28;20086;-79
2023/02/16 08:29:18;;;;;;;4.72;2.40;;;;;;;;;;4987293;28;20054;-79
2023/02/16 08:31:45;;;;;;;5.18;2.50;;;;;;;;;;4983402;28;20037;-79
2023/02/16 08:34:12;;;;;;;4.38;2.17;;;;;;;;;;4988427;28;20061;-78
2023/02/16 08:36:39;;;;;;;4.18;2.55;;;;;;;;;;4988971;28;20114;-78
2023/02/16 08:39:11;;;;;;;5.82;2.38;;;;;;;;;;4981624;28;20035;-78
2023/02/16 08:41:37;;;;;;;3.85;2.22;;;;;;;;;;4985336;28;20084;-78
2023/02/16 08:44:05;;;;;;;3.80;2.03;;;;;;;;;;4987996;28;20472;-79
2023/02/16 08:46:32;;;;;;;4.28;2.50;;;;;;;;;;4989136;28;20034;-79
2023/02/16 08:48:59;;;;;;;4.07;2.45;;;;;;;;;;4987429;28;20501;-78
2023/02/16 08:51:26;;;;;;;6.03;2.60;;;;;;;;;;4983863;28;20121;-79
2023/02/16 08:53:53;;;;;;;4.22;2.38;;;;;;;;;;4988071;28;20456;-78
2023/02/16 08:56:19;;;;;;;4.40;2.22;;;;;;;;;;4988344;28;20455;-78
2023/02/16 08:58:46;;;;;;;5.30;2.70;;;;;;;;;;4988955;28;20022;-78
2023/02/16 09:01:13;;;;;;;3.92;2.17;;;;;;;;;;4987212;28;20021;-78
2023/02/16 09:03:41;;;;;;;3.60;2.33;;;;;;;;;;4987597;28;20040;-78
2023/02/16 09:06:10;;;;;;;2.85;2.03;;;;;;;;;;4977955;28;20030;-78
2023/02/16 09:08:36;;;;;;;4.43;2.55;;;;;;;;;;4988975;28;20015;-78
2023/02/16 09:11:03;;;;;;;3.85;2.38;;;;;;;;;;4987008;28;20106;-78
2023/02/16 09:13:29;;;;;;;3.67;2.53;;;;;;;;;;4988758;28;20042;-78
2023/02/16 09:15:58;;;;;;;3.03;2.35;;;;;;;;;;4988127;28;20152;-79
2023/02/16 09:18:25;;;;;;;2.85;2.05;;;;;;;;;;4989109;28;20014;-78
2023/02/16 09:20:51;;;;;;;3.63;2.38;;;;;;;;;;4985411;28;20167;-78
2023/02/16 09:23:19;;;;;;;4.13;2.40;;;;;;;;;;4981109;28;20019;-78
2023/02/16 09:25:45;;;;;;;5.82;2.50;;;;;;;;;;4988224;28;20034;-78
2023/02/16 09:28:12;;;;;;;3.67;2.20;;;;;;;;;;4988684;28;20017;-78
2023/02/16 09:30:38;;;;;;;3.85;2.53;;;;;;;;;;4984843;28;20477;-78
2023/02/16 09:33:04;;;;;;;4.32;2.45;;;;;;;;;;4979003;28;20081;-78
2023/02/16 09:35:31;;;;;;;4.38;2.35;;;;;;;;;;4987264;28;20034;-78
2023/02/16 09:37:57;;;;;;;2.95;2.10;;;;;;;;;;4988231;28;20049;-78
2023/02/16 09:40:23;;;;;;;3.75;2.15;;;;;;;;;;4988361;28;20026;-78
2023/02/16 09:43:07;;;;;;;5.82;2.63;;;;;;;;;;4982719;28;20433;-78
2023/02/16 09:45:38;;;;;;;4.25;2.40;;;;;;;;;;4978066;28;20540;-78
2023/02/16 09:48:04;;;;;;;3.55;1.92;;;;;;;;;;4988118;28;20038;-78
2023/02/16 09:50:33;;;;;;;3.88;2.42;;;;;;;;;;4982997;28;20085;-77
2023/02/16 09:53:07;;;;;;;3.10;2.05;;;;;;;;;;4983712;28;20113;-78
2023/02/16 09:55:46;;;;;;;4.63;2.83;;;;;;;;;;4987004;28;20054;-78
2023/02/16 09:58:18;;;;;;;2.70;2.10;;;;;;;;;;4987112;28;20030;-77
2023/02/16 10:00:44;;;;;;;4.57;2.28;;;;;;;;;;4987966;28;20026;-77
2023/02/16 10:03:19;;;;;;;4.85;2.22;;;;;;;;;;4987908;28;20024;-78
2023/02/16 10:05:52;;;;;;;3.65;2.17;;;;;;;;;;4987107;28;20186;-78
2023/02/16 10:08:27;;;;;;;3.63;2.58;;;;;;;;;;4986340;28;20316;-77
2023/02/16 10:13:56;;;;;;;5.38;2.40;;;;;;;;;;4985871;28;20254;-78
2023/02/16 10:16:27;;;;;;;4.85;2.40;;;;;;;;;;4987508;28;20031;-77
2023/02/16 10:18:53;;;;;;;3.83;2.43;;;;;;;;;;4986350;28;20029;-77
2023/02/16 10:21:24;;;;;;;3.08;1.90;;;;;;;;;;4987548;28;20026;-77
2023/02/16 10:23:58;;;;;;;3.78;2.47;;;;;;;;;;4983690;28;20034;-77
2023/02/16 10:26:39;;;;;;;4.03;2.38;;;;;;;;;;4982415;28;20033;-78
2023/02/16 10:29:18;;;;;;;5.18;2.78;;;;;;;;;;4984120;28;20405;-78
2023/02/16 10:31:56;;;;;;;4.85;2.30;;;;;;;;;;4985756;28;20031;-78
2023/02/16 10:34:38;;;;;;;4.60;2.05;;;;;;;;;;4987512;28;20026;-78
2023/02/16 10:37:08;;;;;;;4.03;2.25;;;;;;;;;;4986487;28;20065;-77
2023/02/16 10:39:53;;;;;;;4.60;2.38;;;;;;;;;;4987787;28;20425;-78
2023/02/16 10:42:40;;;;;;;3.92;2.30;;;;;;;;;;4986365;28;20034;-77
2023/02/16 10:45:16;;;;;;;4.47;2.28;;;;;;;;;;4987337;28;20064;-78
2023/02/16 10:47:43;;;;;;;3.53;2.40;;;;;;;;;;4989821;28;20513;-77
2023/02/16 10:50:27;;;;;;;3.58;2.42;;;;;;;;;;4991361;28;20548;-78
2023/02/16 10:52:58;;;;;;;4.95;2.30;;;;;;;;;;4990018;28;20108;-77
2023/02/16 10:55:25;;;;;;;3.50;2.30;;;;;;;;;;4981325;28;20034;-77
2023/02/16 10:57:53;;;;;;;4.97;1.95;;;;;;;;;;4991220;28;20031;-77
2023/02/16 11:00:21;;;;;;;2.97;1.90;;;;;;;;;;4991041;28;20097;-77
2023/02/16 11:02:52;;;;;;;4.68;2.72;;;;;;;;;;4990569;28;20046;-77
2023/02/16 11:05:38;;;;;;;3.70;2.05;;;;;;;;;;4989782;28;20054;-78
2023/02/16 11:08:05;;;;;;;5.38;2.30;;;;;;;;;;4990951;28;20611;-77
2023/02/16 11:10:47;;;;;;;3.80;2.17;;;;;;;;;;4990817;28;20721;-77
2023/02/16 11:13:32;;;;;;;3.78;2.25;;;;;;;;;;4980585;28;20708;-77
2023/02/16 11:16:02;;;;;;;4.80;2.35;;;;;;;;;;4988935;28;20034;-79
2023/02/16 11:18:36;;;;;;;3.50;2.42;;;;;;;;;;4978728;28;20023;-79
2023/02/16 11:21:06;;;;;;;2.78;2.25;;;;;;;;;;4990642;28;20147;-78
2023/02/16 11:23:42;;;;;;;2.88;2.00;;;;;;;;;;4990602;28;20481;-78
2023/02/16 11:26:27;;;;;;;3.97;2.42;;;;;;;;;;4989962;28;20121;-79
2023/02/16 11:29:06;;;;;;;4.22;2.50;;;;;;;;;;4988755;28;20397;-79
2023/02/16 11:31:36;;;;;;;3.25;2.22;;;;;;;;;;4990784;28;20048;-79
2023/02/16 11:34:13;;;;;;;4.85;2.38;;;;;;;;;;4989130;28;20030;-78
2023/02/16 11:36:40;;;;;;;4.03;2.38;;;;;;;;;;4987462;28;20489;-79
2023/02/16 11:39:23;;;;;;;4.65;2.13;;;;;;;;;;4986397;28;20031;-79
2023/02/16 11:41:54;;;;;;;5.07;2.15;;;;;;;;;;4988118;28;20022;-79
2023/02/16 11:44:31;;;;;;;3.97;2.60;;;;;;;;;;4984096;28;20033;-80
2023/02/16 11:46:59;;;;;;;4.25;2.10;;;;;;;;;;4989997;28;20120;-79
2023/02/16 11:49:35;;;;;;;4.03;2.50;;;;;;;;;;4990276;28;20053;-78
2023/02/16 11:52:17;;;;;;;3.88;2.38;;;;;;;;;;4989188;28;20033;-79
2023/02/16 11:54:51;;;;;;;4.28;2.42;;;;;;;;;;4977985;28;20030;-78
2023/02/16 11:57:25;;;;;;;2.30;1.90;;;;;;;;;;4985892;28;20023;-78
2023/02/16 11:59:51;;;;;;;4.05;2.00;;;;;;;;;;4985251;28;20206;-78
2023/02/16 12:02:32;;;;;;;2.63;1.77;;;;;;;;;;4986193;28;20030;-78
2023/02/16 12:05:18;;;;;;;2.95;2.00;;;;;;;;;;4987649;28;20046;-77
2023/02/16 12:08:07;;;;;;;2.95;1.98;;;;;;;;;;4980716;28;20045;-74
2023/02/16 12:10:36;;;;;;;2.42;1.88;;;;;;;;;;4987544;28;20371;-74
2023/02/16 12:13:08;;;;;;;2.50;1.88;;;;;;;;;;4987528;28;20092;-74
2023/02/16 12:15:39;;;;;;;3.40;2.33;;;;;;;;;;4984289;28;20038;-74
2023/02/16 12:18:23;;;;;;;4.72;2.42;;;;;;;;;;4989976;28;20041;-74
2023/02/16 12:21:01;;;;;;;2.90;1.98;;;;;;;;;;4991808;28;20468;-74
2023/02/16 12:23:30;;;;;;;4.55;2.13;;;;;;;;;;4996357;28;20275;-75
2023/02/16 12:25:59;;;;;;;3.67;2.00;;;;;;;;;;4987583;28;20472;-74
2023/02/16 12:28:25;;;;;;;3.25;1.92;;;;;;;;;;4988838;28;20030;-74
2023/02/16 12:30:52;;;;;;;3.08;2.25;;;;;;;;;;4983201;28;20185;-75
2023/02/16 12:33:21;;;;;;;3.03;2.33;;;;;;;;;;4987948;28;20580;-74
2023/02/16 12:35:54;;;;;;;4.30;1.95;;;;;;;;;;4986635;28;20022;-74
2023/02/16 12:38:33;;;;;;;4.40;2.55;;;;;;;;;;4989601;28;20027;-74
2023/02/16 12:41:18;;;;;;;2.85;2.13;;;;;;;;;;4989114;28;20110;-74
2023/02/16 12:43:50;;;;;;;3.67;2.38;;;;;;;;;;4984155;28;20050;-74
2023/02/16 12:46:32;;;;;;;2.42;1.92;;;;;;;;;;4979039;28;20026;-74
2023/02/16 12:49:05;;;;;;;5.55;2.67;;;;;;;;;;4980048;28;20066;-74
2023/02/16 12:51:37;;;;;;;4.10;2.25;;;;;;;;;;4989378;28;20054;-74
2023/02/16 12:54:20;;;;;;;5.00;2.40;;;;;;;;;;4983422;28;20038;-74
2023/02/16 12:56:49;;;;;;;3.08;1.92;;;;;;;;;;4990377;28;20591;-74
2023/02/16 12:59:24;;;;;;;5.00;2.92;;;;;;;;;;4971366;28;20014;-74
2023/02/16 13:01:52;;;;;;;2.70;2.03;;;;;;;;;;4987988;28;20018;-74
2023/02/16 13:04:18;;;;;;;3.05;2.42;;;;;;;;;;4985946;28;20488;-74
2023/02/16 13:06:44;;;;;;;2.08;1.77;;;;;;;;;;4985686;28;20068;-75
2023/02/16 13:09:10;;;;;;;3.42;2.08;;;;;;;;;;4986285;28;20480;-75
2023/02/16 13:11:43;;;;;;;3.05;2.08;;;;;;;;;;4988853;28;20036;-75
2023/02/16 13:14:20;;;;;;;4.90;2.47;;;;;;;;;;4988746;28;20038;-76
2023/02/16 13:16:49;;;;;;;2.97;1.88;;;;;;;;;;4988568;28;20030;-75
2023/02/16 13:19:15;;;;;;;4.45;2.08;;;;;;;;;;4984972;28;20022;-75
2023/02/16 13:21:54;;;;;;;3.25;2.40;;;;;;;;;;4988071;28;20534;-76
2023/02/16 13:24:48;;;;;;;5.20;2.30;;;;;;;;;;4990274;28;20035;-75
2023/02/16 13:27:23;;;;;;;2.55;1.92;;;;;;;;;;4980480;28;20030;-75
2023/02/16 13:29:51;;;;;;;4.55;2.20;;;;;;;;;;4980717;28;20022;-75
2023/02/16 13:32:29;;;;;;;2.45;1.70;;;;;;;;;;4983778;28;20034;-77
2023/02/16 13:35:07;;;;;;;5.35;2.30;;;;;;;;;;4988244;28;20044;-87
2023/02/16 13:37:53;;;;;;;3.83;2.30;;;;;;;;;;4987334;28;20050;-85
2023/02/16 13:40:30;;;;;;;4.53;2.53;;;;;;;;;;4994626;28;20026;-84
2023/02/16 13:43:01;;;;;;;5.43;2.80;;;;;;;;;;4983536;28;20720;-76
2023/02/16 13:45:27;;;;;;;;;;;;;;;;;;4983863;28;20026;-79
2023/02/16 13:47:54;;;;;;;5.75;2.65;;;;;;;;;;4985415;28;19949;-87
2023/02/16 13:50:19;;;;;;;4.47;2.55;;;;;;;;;;4986390;28;20117;-80
2023/02/16 13:52:53;;;;;;;4.65;2.35;;;;;;;;;;4991032;28;20042;-82
2023/02/16 13:55:25;;;;;;;4.97;2.08;;;;;;;;;;4999582;28;20046;-81
2023/02/16 13:57:55;;;;;;;4.13;2.00;;;;;;;;;;4986860;28;20477;-79
2023/02/16 14:00:27;;;;;;;4.15;2.33;;;;;;;;;;4986587;28;20033;-87
2023/02/16 14:02:55;;;;;;;4.18;2.20;;;;;;;;;;4982521;28;20022;-85
2023/02/16 14:05:27;;;;;;;4.10;2.42;;;;;;;;;;4986312;28;20049;-81
2023/02/16 14:07:53;;;;;;;;;;;;;;;;;;4982624;28;20056;-84
2023/02/16 14:10:39;;;;;;;5.53;2.72;;;;;;;;;;4978651;28;19997;-86
2023/02/16 14:13:13;;;;;;;3.53;2.15;;;;;;;;;;4985970;28;20093;-87
2023/02/16 14:15:50;;;;;;;3.13;2.22;;;;;;;;;;4982673;28;20066;-76
2023/02/16 14:18:32;;;;;;;4.53;1.92;;;;;;;;;;4984339;28;20509;-82
2023/02/16 14:21:05;;;;;;;5.80;2.60;;;;;;;;;;4987986;28;20045;-83
2023/02/16 14:23:33;;;;;;;4.00;2.28;;;;;;;;;;4987311;28;20030;-80
2023/02/16 14:26:06;;;;;;;5.13;2.30;;;;;;;;;;4980006;28;20053;-80
2023/02/16 14:28:35;;;;;;;3.55;2.25;;;;;;;;;;4985055;28;20034;-82
2023/02/16 14:31:03;;;;;;;3.72;1.77;;;;;;;;;;4999506;28;20025;-82
2023/02/16 14:33:39;;;;;;;3.90;2.20;;;;;;;;;;4992330;28;20027;-79
2023/02/16 14:36:12;;;;;;;4.40;2.40;;;;;;;;;;4984873;28;20199;-79
2023/02/16 14:38:41;;;;;;;3.45;2.50;;;;;;;;;;4987999;28;20081;-83
2023/02/16 14:41:14;;;;;;;4.95;2.55;;;;;;;;;;4988733;28;20034;-88
2023/02/16 14:43:44;;;;;;;3.08;2.20;;;;;;;;;;4984094;28;20504;-80
2023/02/16 14:46:32;;;;;;;3.85;2.35;;;;;;;;;;4979602;28;20121;-84
2023/02/16 14:49:18;;;;;;;4.32;2.42;;;;;;;;;;4993743;28;20096;-81
2023/02/16 14:51:56;;;;;;;4.13;2.22;;;;;;;;;;4985768;28;20109;-81
2023/02/16 14:54:40;;;;;;;3.80;2.40;;;;;;;;;;4981181;28;20049;-78
2023/02/16 14:57:11;;;;;;;3.22;2.28;;;;;;;;;;4987185;28;20030;-73
2023/02/16 14:59:37;;;;;;;6.80;3.10;;;;;;;;;;4984675;28;20422;-80
2023/02/16 15:02:22;;;;;;;4.82;2.38;;;;;;;;;;4984826;28;20080;-85
2023/02/16 15:04:48;;;;;;;4.93;2.75;;;;;;;;;;4989254;28;20046;-86
2023/02/16 15:07:14;;;;;;;4.95;2.53;;;;;;;;;;4985619;28;20034;-87
2023/02/16 15:09:41;;;;;;;5.60;2.20;;;;;;;;;;4987354;28;20057;-83
2023/02/16 15:12:21;;;;;;;5.65;2.83;;;;;;;;;;4985292;28;20026;-84
2023/02/16 15:14:47;;;;;;;3.87;2.33;;;;;;;;;;4980538;28;20065;-83
2023/02/16 15:17:25;;;;;;;5.18;2.72;;;;;;;;;;4988666;28;20269;-83
2023/02/16 15:19:53;;;;;;;3.67;2.70;;;;;;;;;;4984908;28;20174;-82
2023/02/16 15:22:21;;;;;;;4.22;2.20;;;;;;;;;;4988631;28;20098;-83
2023/02/16 15:24:56;;;;;;;4.50;2.33;;;;;;;;;;4981924;28;20031;-82
2023/02/16 15:27:23;;;;;;;4.72;2.47;;;;;;;;;;4987273;28;20054;-82
2023/02/16 15:30:08;;;;;;;8.68;2.45;;;;;;;;;;4981413;28;20031;-81
2023/02/16 15:32:34;;;;;;;7.22;2.88;;;;;;;;;;4979066;28;20062;-82
2023/02/16 15:35:09;;;;;;;3.67;2.08;;;;;;;;;;4989203;28;20030;-81
2023/02/16 15:37:36;;;;;;;4.72;2.47;;;;;;;;;;4987816;28;20030;-80
2023/02/16 15:40:14;;;;;;;3.35;2.30;;;;;;;;;;4970348;28;20753;-77
2023/02/16 15:42:43;;;;;;;3.88;2.55;;;;;;;;;;4983681;28;20030;-82
2023/02/16 15:45:38;;;;;;;3.60;2.08;;;;;;;;;;4979227;28;20057;-83
2023/02/16 15:48:40;;;;;;;2.90;1.85;;;;;;;;;;4964593;28;20038;-85
2023/02/16 15:51:08;;;;;;;7.03;2.33;;;;;;;;;;4927377;29;20049;-83
2023/02/16 15:53:37;;;;;;;7.10;3.05;;;;;;;;;;4975204;28;20485;-76
2023/02/16 15:56:15;;;;;;;3.88;2.22;;;;;;;;;;4984965;28;20168;-75
2023/02/16 15:58:41;;;;;;;3.85;2.30;;;;;;;;;;4982375;28;20141;-75
2023/02/16 16:01:09;;;;;;;3.85;2.35;;;;;;;;;;4983604;28;20409;-75
2023/02/16 16:03:35;;;;;;;4.13;2.70;;;;;;;;;;4985714;28;20523;-75
2023/02/16 16:06:04;;;;;;;4.15;2.40;;;;;;;;;;4985538;28;20046;-74
2023/02/16 16:08:31;;;;;;;4.70;2.45;;;;;;;;;;4986965;28;20027;-77
2023/02/16 16:10:57;;;;;;;6.20;2.40;;;;;;;;;;4982869;28;20630;-75
2023/02/16 16:13:27;;;;;;;3.90;2.75;;;;;;;;;;4982513;28;20046;-75
2023/02/16 16:15:58;;;;;;;3.57;2.17;;;;;;;;;;4984288;28;20081;-75
2023/02/16 16:18:38;;;;;;;3.90;2.10;;;;;;;;;;4985085;28;20059;-75
2023/02/16 16:21:12;;;;;;;5.38;2.03;;;;;;;;;;4986607;28;20030;-75
2023/02/16 16:23:38;;;;;;;4.38;2.22;;;;;;;;;;4983465;28;20030;-75
2023/02/16 16:26:18;;;;;;;3.95;2.25;;;;;;;;;;4982943;28;20072;-75
2023/02/16 16:28:44;;;;;;;4.97;2.80;;;;;;;;;;4978108;28;20077;-75
2023/02/16 16:31:31;;;;;;;3.92;2.20;;;;;;;;;;4979557;28;20034;-75
2023/02/16 16:34:00;;;;;;;5.63;2.58;;;;;;;;;;4985139;28;20030;-75
2023/02/16 16:36:28;;;;;;;2.85;1.90;;;;;;;;;;4981359;28;20044;-75
2023/02/16 16:39:13;;;;;;;2.97;2.08;;;;;;;;;;4980975;28;20038;-77
2023/02/16 16:41:40;;;;;;;4.60;2.20;;;;;;;;;;4983655;28;20112;-77
2023/02/16 16:44:09;;;;;;;3.92;2.30;;;;;;;;;;4991723;28;20057;-77
2023/02/16 16:46:35;;;;;;;2.58;1.85;;;;;;;;;;4988777;28;20234;-77
2023/02/16 16:49:03;;;;;;;4.13;2.40;;;;;;;;;;4987256;28;21548;-77
2023/02/16 16:51:39;;;;;;;3.83;2.45;;;;;;;;;;4994310;28;20068;-77
2023/02/16 16:54:09;;;;;;;4.85;2.53;;;;;;;;;;4984032;28;20037;-83
2023/02/16 16:56:37;;;;;;;3.47;2.03;;;;;;;;;;4984422;28;20033;-85
2023/02/16 16:59:03;;;;;;;3.33;2.00;;;;;;;;;;4980409;28;20038;-77
2023/02/16 17:01:29;;;;;;;2.90;2.00;;;;;;;;;;4985157;28;20029;-77
2023/02/16 17:03:55;;;;;;;2.42;1.70;;;;;;;;;;4987812;28;20087;-76
2023/02/16 17:06:21;;;;;;;3.20;2.00;;;;;;;;;;4985200;28;20169;-77
2023/02/16 17:08:47;;;;;;;3.10;2.25;;;;;;;;;;4988656;28;20030;-77
2023/02/16 17:11:22;;;;;;;5.18;2.50;;;;;;;;;;4982504;28;20041;-76
2023/02/16 17:13:48;;;;;;;4.50;2.33;;;;;;;;;;4981879;28;20125;-78
2023/02/16 17:16:20;;;;;;;4.13;2.15;;;;;;;;;;4977483;28;20022;-87
2023/02/16 17:18:46;;;;;;;2.05;1.55;;;;;;;;;;4979374;28;20109;-83
2023/02/16 17:21:15;;;;;;;3.08;1.60;;;;;;;;;;4978789;28;20130;-77
2023/02/16 17:23:42;;;;;;;3.70;2.47;;;;;;;;;;4984380;28;20097;-80
2023/02/16 17:26:08;;;;;;;3.83;2.35;;;;;;;;;;4981201;28;20161;-79
2023/02/16 17:28:35;;;;;;;3.33;2.13;;;;;;;;;;4988233;28;20093;-76
2023/02/16 17:31:14;;;;;;;2.88;1.92;;;;;;;;;;4987371;28;20027;-78